sensor_id;sensor_type;location;lat;lon;timestamp;P1;durP1;ratioP1;P2;durP2;ratioP2
67995;SDS011;54772;53.544;49.324;2023-09-07T00:00:59;6.18;;;3.97;;
67995;SDS011;54772;53.544;49.324;2023-09-07T00:03:49;4.75;;;3.20;;
67995;SDS011;54772;53.544;49.324;2023-09-07T00:06:39;5.95;;;3.50;;
67995;SDS011;54772;53.544;49.324;2023-09-07T00:09:29;4.35;;;3.15;;
67995;SDS011;54772;53.544;49.324;2023-09-07T00:12:15;4.60;;;3.12;;
67995;SDS011;54772;53.544;49.324;2023-09-07T00:15:05;3.90;;;2.78;;
67995;SDS011;54772;53.544;49.324;2023-09-07T00:17:55;4.95;;;3.35;;
67995;SDS011;54772;53.544;49.324;2023-09-07T00:20:42;5.07;;;3.05;;
67995;SDS011;54772;53.544;49.324;2023-09-07T00:23:29;6.45;;;3.37;;
67995;SDS011;54772;53.544;49.324;2023-09-07T00:26:16;8.45;;;3.67;;
67995;SDS011;54772;53.544;49.324;2023-09-07T00:29:04;5.53;;;3.20;;
67995;SDS011;54772;53.544;49.324;2023-09-07T00:31:51;5.22;;;3.40;;
67995;SDS011;54772;53.544;49.324;2023-09-07T00:34:38;5.32;;;3.60;;
67995;SDS011;54772;53.544;49.324;2023-09-07T00:37:24;4.47;;;3.20;;
67995;SDS011;54772;53.544;49.324;2023-09-07T00:40:11;6.95;;;3.60;;
67995;SDS011;54772;53.544;49.324;2023-09-07T00:44:34;4.72;;;3.58;;
67995;SDS011;54772;53.544;49.324;2023-09-07T00:47:23;6.65;;;3.62;;
67995;SDS011;54772;53.544;49.324;2023-09-07T00:50:10;5.90;;;3.42;;
67995;SDS011;54772;53.544;49.324;2023-09-07T00:53:05;6.22;;;3.50;;
67995;SDS011;54772;53.544;49.324;2023-09-07T00:55:52;5.25;;;3.33;;
67995;SDS011;54772;53.544;49.324;2023-09-07T00:58:43;6.05;;;3.83;;
67995;SDS011;54772;53.544;49.324;2023-09-07T01:01:30;7.53;;;3.45;;
67995;SDS011;54772;53.544;49.324;2023-09-07T01:04:21;6.05;;;3.90;;
67995;SDS011;54772;53.544;49.324;2023-09-07T01:07:14;8.55;;;4.45;;
67995;SDS011;54772;53.544;49.324;2023-09-07T01:13:00;7.68;;;4.40;;
67995;SDS011;54772;53.544;49.324;2023-09-07T01:18:36;8.30;;;4.57;;
67995;SDS011;54772;53.544;49.324;2023-09-07T01:21:34;9.35;;;4.87;;
67995;SDS011;54772;53.544;49.324;2023-09-07T01:24:21;10.23;;;5.12;;
67995;SDS011;54772;53.544;49.324;2023-09-07T01:27:08;12.30;;;4.93;;
67995;SDS011;54772;53.544;49.324;2023-09-07T01:32:41;8.65;;;3.95;;
67995;SDS011;54772;53.544;49.324;2023-09-07T01:35:31;7.50;;;3.97;;
67995;SDS011;54772;53.544;49.324;2023-09-07T01:38:21;5.47;;;3.10;;
67995;SDS011;54772;53.544;49.324;2023-09-07T01:41:08;5.22;;;3.60;;
67995;SDS011;54772;53.544;49.324;2023-09-07T01:43:57;6.45;;;3.45;;
67995;SDS011;54772;53.544;49.324;2023-09-07T01:46:44;7.15;;;3.50;;
67995;SDS011;54772;53.544;49.324;2023-09-07T01:49:33;4.20;;;2.95;;
67995;SDS011;54772;53.544;49.324;2023-09-07T01:55:09;4.55;;;2.87;;
67995;SDS011;54772;53.544;49.324;2023-09-07T01:57:58;4.62;;;2.83;;
67995;SDS011;54772;53.544;49.324;2023-09-07T02:00:47;4.30;;;3.12;;
67995;SDS011;54772;53.544;49.324;2023-09-07T02:03:33;5.12;;;3.10;;
67995;SDS011;54772;53.544;49.324;2023-09-07T02:09:07;4.28;;;2.80;;
67995;SDS011;54772;53.544;49.324;2023-09-07T02:11:54;5.45;;;4.00;;
67995;SDS011;54772;53.544;49.324;2023-09-07T02:14:41;4.97;;;3.12;;
67995;SDS011;54772;53.544;49.324;2023-09-07T02:17:30;4.50;;;2.70;;
67995;SDS011;54772;53.544;49.324;2023-09-07T02:20:17;4.18;;;2.80;;
67995;SDS011;54772;53.544;49.324;2023-09-07T02:23:05;4.10;;;2.85;;
67995;SDS011;54772;53.544;49.324;2023-09-07T02:25:52;5.00;;;3.05;;
67995;SDS011;54772;53.544;49.324;2023-09-07T02:28:41;5.78;;;3.15;;
67995;SDS011;54772;53.544;49.324;2023-09-07T02:31:28;4.15;;;2.78;;
67995;SDS011;54772;53.544;49.324;2023-09-07T02:34:15;5.47;;;3.05;;
67995;SDS011;54772;53.544;49.324;2023-09-07T02:37:06;4.78;;;3.08;;
67995;SDS011;54772;53.544;49.324;2023-09-07T02:39:52;5.50;;;2.80;;
67995;SDS011;54772;53.544;49.324;2023-09-07T02:42:42;4.80;;;2.83;;
67995;SDS011;54772;53.544;49.324;2023-09-07T02:45:29;4.35;;;2.90;;
67995;SDS011;54772;53.544;49.324;2023-09-07T02:48:15;4.62;;;2.85;;
67995;SDS011;54772;53.544;49.324;2023-09-07T02:51:01;3.97;;;2.85;;
67995;SDS011;54772;53.544;49.324;2023-09-07T02:53:53;4.15;;;2.50;;
67995;SDS011;54772;53.544;49.324;2023-09-07T02:56:46;3.45;;;2.17;;
67995;SDS011;54772;53.544;49.324;2023-09-07T02:59:35;2.95;;;2.10;;
67995;SDS011;54772;53.544;49.324;2023-09-07T03:05:12;3.10;;;2.45;;
67995;SDS011;54772;53.544;49.324;2023-09-07T03:08:00;4.07;;;2.22;;
67995;SDS011;54772;53.544;49.324;2023-09-07T03:10:46;4.97;;;2.15;;
67995;SDS011;54772;53.544;49.324;2023-09-07T03:13:33;2.62;;;2.12;;
67995;SDS011;54772;53.544;49.324;2023-09-07T03:16:19;2.58;;;1.90;;
67995;SDS011;54772;53.544;49.324;2023-09-07T03:19:06;2.67;;;1.75;;
67995;SDS011;54772;53.544;49.324;2023-09-07T03:21:52;3.62;;;2.30;;
67995;SDS011;54772;53.544;49.324;2023-09-07T03:24:39;2.67;;;1.87;;
67995;SDS011;54772;53.544;49.324;2023-09-07T03:30:13;1.98;;;1.70;;
67995;SDS011;54772;53.544;49.324;2023-09-07T03:32:59;3.70;;;1.80;;
67995;SDS011;54772;53.544;49.324;2023-09-07T03:35:46;2.28;;;1.55;;
67995;SDS011;54772;53.544;49.324;2023-09-07T03:38:32;1.60;;;1.37;;
67995;SDS011;54772;53.544;49.324;2023-09-07T03:41:19;2.40;;;1.80;;
67995;SDS011;54772;53.544;49.324;2023-09-07T03:44:05;2.70;;;1.62;;
67995;SDS011;54772;53.544;49.324;2023-09-07T03:46:52;2.35;;;1.80;;
67995;SDS011;54772;53.544;49.324;2023-09-07T03:49:38;2.65;;;2.10;;
67995;SDS011;54772;53.544;49.324;2023-09-07T03:52:25;2.78;;;1.85;;
67995;SDS011;54772;53.544;49.324;2023-09-07T03:55:14;3.17;;;2.12;;
67995;SDS011;54772;53.544;49.324;2023-09-07T03:58:02;2.15;;;1.70;;
67995;SDS011;54772;53.544;49.324;2023-09-07T04:06:23;3.42;;;2.15;;
67995;SDS011;54772;53.544;49.324;2023-09-07T04:09:09;2.85;;;2.00;;
67995;SDS011;54772;53.544;49.324;2023-09-07T04:14:43;2.72;;;1.73;;
67995;SDS011;54772;53.544;49.324;2023-09-07T04:17:29;3.25;;;1.90;;
67995;SDS011;54772;53.544;49.324;2023-09-07T04:20:25;3.35;;;1.90;;
67995;SDS011;54772;53.544;49.324;2023-09-07T04:23:14;2.72;;;1.50;;
67995;SDS011;54772;53.544;49.324;2023-09-07T04:26:06;2.30;;;1.75;;
67995;SDS011;54772;53.544;49.324;2023-09-07T04:28:52;3.25;;;1.77;;
67995;SDS011;54772;53.544;49.324;2023-09-07T04:31:40;2.53;;;1.60;;
67995;SDS011;54772;53.544;49.324;2023-09-07T04:34:26;2.00;;;1.67;;
67995;SDS011;54772;53.544;49.324;2023-09-07T04:37:13;3.47;;;1.80;;
67995;SDS011;54772;53.544;49.324;2023-09-07T04:39:59;2.35;;;1.60;;
67995;SDS011;54772;53.544;49.324;2023-09-07T04:42:47;3.05;;;1.87;;
67995;SDS011;54772;53.544;49.324;2023-09-07T04:45:33;3.60;;;1.87;;
67995;SDS011;54772;53.544;49.324;2023-09-07T04:51:06;2.75;;;1.60;;
67995;SDS011;54772;53.544;49.324;2023-09-07T04:53:54;2.40;;;1.87;;
67995;SDS011;54772;53.544;49.324;2023-09-07T04:56:40;3.47;;;2.22;;
67995;SDS011;54772;53.544;49.324;2023-09-07T04:59:27;2.50;;;1.95;;
67995;SDS011;54772;53.544;49.324;2023-09-07T05:02:14;2.78;;;2.00;;
67995;SDS011;54772;53.544;49.324;2023-09-07T05:05:01;2.62;;;1.92;;
67995;SDS011;54772;53.544;49.324;2023-09-07T05:07:47;2.33;;;1.67;;
67995;SDS011;54772;53.544;49.324;2023-09-07T05:10:34;3.12;;;1.77;;
67995;SDS011;54772;53.544;49.324;2023-09-07T05:13:22;2.62;;;1.83;;
67995;SDS011;54772;53.544;49.324;2023-09-07T05:16:09;2.45;;;1.45;;
67995;SDS011;54772;53.544;49.324;2023-09-07T05:18:55;3.08;;;1.75;;
67995;SDS011;54772;53.544;49.324;2023-09-07T05:21:42;3.00;;;1.85;;
67995;SDS011;54772;53.544;49.324;2023-09-07T05:24:29;1.92;;;1.42;;
67995;SDS011;54772;53.544;49.324;2023-09-07T05:27:16;2.47;;;1.40;;
67995;SDS011;54772;53.544;49.324;2023-09-07T05:30:03;3.42;;;1.80;;
67995;SDS011;54772;53.544;49.324;2023-09-07T05:32:50;1.95;;;1.40;;
67995;SDS011;54772;53.544;49.324;2023-09-07T05:35:37;1.50;;;1.23;;
67995;SDS011;54772;53.544;49.324;2023-09-07T05:38:24;2.60;;;1.70;;
67995;SDS011;54772;53.544;49.324;2023-09-07T05:43:58;1.45;;;1.05;;
67995;SDS011;54772;53.544;49.324;2023-09-07T05:46:44;2.22;;;1.37;;
67995;SDS011;54772;53.544;49.324;2023-09-07T05:52:14;2.42;;;1.70;;
67995;SDS011;54772;53.544;49.324;2023-09-07T05:55:01;2.00;;;1.20;;
67995;SDS011;54772;53.544;49.324;2023-09-07T05:57:48;1.62;;;1.17;;
67995;SDS011;54772;53.544;49.324;2023-09-07T06:00:35;1.65;;;1.00;;
67995;SDS011;54772;53.544;49.324;2023-09-07T06:03:24;0.93;;;0.93;;
67995;SDS011;54772;53.544;49.324;2023-09-07T06:08:58;3.55;;;1.12;;
67995;SDS011;54772;53.544;49.324;2023-09-07T06:14:31;2.80;;;1.75;;
67995;SDS011;54772;53.544;49.324;2023-09-07T06:17:18;1.27;;;0.98;;
67995;SDS011;54772;53.544;49.324;2023-09-07T06:20:05;1.33;;;1.20;;
67995;SDS011;54772;53.544;49.324;2023-09-07T06:22:52;2.70;;;1.17;;
67995;SDS011;54772;53.544;49.324;2023-09-07T06:25:40;2.17;;;1.48;;
67995;SDS011;54772;53.544;49.324;2023-09-07T06:28:26;1.85;;;1.58;;
67995;SDS011;54772;53.544;49.324;2023-09-07T06:31:13;3.62;;;1.20;;
67995;SDS011;54772;53.544;49.324;2023-09-07T06:34:00;2.03;;;1.50;;
67995;SDS011;54772;53.544;49.324;2023-09-07T06:36:48;1.05;;;0.90;;
67995;SDS011;54772;53.544;49.324;2023-09-07T06:39:35;1.73;;;1.20;;
67995;SDS011;54772;53.544;49.324;2023-09-07T06:42:21;2.12;;;1.23;;
67995;SDS011;54772;53.544;49.324;2023-09-07T06:45:08;1.55;;;1.42;;
67995;SDS011;54772;53.544;49.324;2023-09-07T06:47:56;1.80;;;1.27;;
67995;SDS011;54772;53.544;49.324;2023-09-07T06:53:30;1.45;;;1.35;;
67995;SDS011;54772;53.544;49.324;2023-09-07T06:56:16;1.85;;;1.08;;
67995;SDS011;54772;53.544;49.324;2023-09-07T06:59:03;1.87;;;1.50;;
67995;SDS011;54772;53.544;49.324;2023-09-07T07:01:51;2.05;;;1.70;;
67995;SDS011;54772;53.544;49.324;2023-09-07T07:07:24;2.72;;;1.52;;
67995;SDS011;54772;53.544;49.324;2023-09-07T07:10:11;2.00;;;1.55;;
67995;SDS011;54772;53.544;49.324;2023-09-07T07:12:57;2.10;;;1.40;;
67995;SDS011;54772;53.544;49.324;2023-09-07T07:15:44;4.90;;;1.58;;
67995;SDS011;54772;53.544;49.324;2023-09-07T07:18:30;2.67;;;1.58;;
67995;SDS011;54772;53.544;49.324;2023-09-07T07:21:17;0.65;;;0.62;;
67995;SDS011;54772;53.544;49.324;2023-09-07T07:24:04;4.35;;;1.60;;
67995;SDS011;54772;53.544;49.324;2023-09-07T07:26:52;2.28;;;1.67;;
67995;SDS011;54772;53.544;49.324;2023-09-07T07:32:25;1.30;;;1.20;;
67995;SDS011;54772;53.544;49.324;2023-09-07T07:35:12;1.87;;;1.40;;
67995;SDS011;54772;53.544;49.324;2023-09-07T07:38:00;1.95;;;1.25;;
67995;SDS011;54772;53.544;49.324;2023-09-07T07:40:48;4.22;;;1.73;;
67995;SDS011;54772;53.544;49.324;2023-09-07T07:43:35;3.40;;;1.48;;
67995;SDS011;54772;53.544;49.324;2023-09-07T07:46:22;1.98;;;1.52;;
67995;SDS011;54772;53.544;49.324;2023-09-07T07:51:55;2.75;;;1.52;;
67995;SDS011;54772;53.544;49.324;2023-09-07T07:54:43;2.25;;;1.20;;
67995;SDS011;54772;53.544;49.324;2023-09-07T08:00:17;3.42;;;1.50;;
67995;SDS011;54772;53.544;49.324;2023-09-07T08:03:06;1.45;;;1.00;;
67995;SDS011;54772;53.544;49.324;2023-09-07T08:05:54;3.17;;;1.42;;
67995;SDS011;54772;53.544;49.324;2023-09-07T08:08:43;2.35;;;1.10;;
67995;SDS011;54772;53.544;49.324;2023-09-07T08:11:31;2.65;;;1.25;;
67995;SDS011;54772;53.544;49.324;2023-09-07T08:14:18;2.35;;;1.23;;
67995;SDS011;54772;53.544;49.324;2023-09-07T08:17:05;2.03;;;1.45;;
67995;SDS011;54772;53.544;49.324;2023-09-07T08:19:53;3.83;;;2.00;;
67995;SDS011;54772;53.544;49.324;2023-09-07T08:22:42;5.60;;;1.80;;
67995;SDS011;54772;53.544;49.324;2023-09-07T08:25:29;3.60;;;1.05;;
67995;SDS011;54772;53.544;49.324;2023-09-07T08:28:16;2.22;;;1.10;;
67995;SDS011;54772;53.544;49.324;2023-09-07T08:31:06;2.03;;;1.60;;
67995;SDS011;54772;53.544;49.324;2023-09-07T08:33:52;0.77;;;0.73;;
67995;SDS011;54772;53.544;49.324;2023-09-07T08:36:40;3.60;;;1.85;;
67995;SDS011;54772;53.544;49.324;2023-09-07T08:39:27;2.12;;;1.30;;
67995;SDS011;54772;53.544;49.324;2023-09-07T08:42:13;1.27;;;1.05;;
67995;SDS011;54772;53.544;49.324;2023-09-07T08:45:04;3.08;;;1.33;;
67995;SDS011;54772;53.544;49.324;2023-09-07T08:47:54;3.80;;;1.40;;
67995;SDS011;54772;53.544;49.324;2023-09-07T08:53:27;2.90;;;1.53;;
67995;SDS011;54772;53.544;49.324;2023-09-07T08:56:16;2.30;;;1.50;;
67995;SDS011;54772;53.544;49.324;2023-09-07T08:59:04;3.53;;;1.65;;
67995;SDS011;54772;53.544;49.324;2023-09-07T09:01:50;2.83;;;1.50;;
67995;SDS011;54772;53.544;49.324;2023-09-07T09:04:43;1.85;;;1.45;;
67995;SDS011;54772;53.544;49.324;2023-09-07T09:10:17;1.50;;;1.20;;
67995;SDS011;54772;53.544;49.324;2023-09-07T09:13:03;2.00;;;1.20;;
67995;SDS011;54772;53.544;49.324;2023-09-07T09:18:36;1.90;;;1.30;;
67995;SDS011;54772;53.544;49.324;2023-09-07T09:21:27;1.87;;;1.25;;
67995;SDS011;54772;53.544;49.324;2023-09-07T09:24:13;1.37;;;0.93;;
67995;SDS011;54772;53.544;49.324;2023-09-07T09:27:00;3.15;;;1.50;;
67995;SDS011;54772;53.544;49.324;2023-09-07T09:29:49;2.22;;;1.70;;
67995;SDS011;54772;53.544;49.324;2023-09-07T09:32:36;5.03;;;1.40;;
67995;SDS011;54772;53.544;49.324;2023-09-07T09:35:22;1.52;;;1.33;;
67995;SDS011;54772;53.544;49.324;2023-09-07T09:38:09;1.73;;;1.40;;
67995;SDS011;54772;53.544;49.324;2023-09-07T09:40:58;3.08;;;1.62;;
67995;SDS011;54772;53.544;49.324;2023-09-07T09:43:45;3.37;;;1.92;;
67995;SDS011;54772;53.544;49.324;2023-09-07T09:46:36;1.60;;;1.50;;
67995;SDS011;54772;53.544;49.324;2023-09-07T09:49:24;1.92;;;1.37;;
67995;SDS011;54772;53.544;49.324;2023-09-07T09:52:12;1.48;;;1.27;;
67995;SDS011;54772;53.544;49.324;2023-09-07T09:55:00;3.10;;;1.52;;
67995;SDS011;54772;53.544;49.324;2023-09-07T09:57:46;2.05;;;1.33;;
67995;SDS011;54772;53.544;49.324;2023-09-07T10:00:35;3.03;;;1.70;;
67995;SDS011;54772;53.544;49.324;2023-09-07T10:03:31;1.83;;;1.25;;
67995;SDS011;54772;53.544;49.324;2023-09-07T10:06:18;1.58;;;1.05;;
67995;SDS011;54772;53.544;49.324;2023-09-07T10:09:11;1.58;;;1.45;;
67995;SDS011;54772;53.544;49.324;2023-09-07T10:12:02;7.47;;;1.73;;
67995;SDS011;54772;53.544;49.324;2023-09-07T10:14:53;2.80;;;1.45;;
67995;SDS011;54772;53.544;49.324;2023-09-07T10:17:40;1.25;;;1.10;;
67995;SDS011;54772;53.544;49.324;2023-09-07T10:20:27;3.28;;;1.62;;
67995;SDS011;54772;53.544;49.324;2023-09-07T10:26:02;1.42;;;1.30;;
67995;SDS011;54772;53.544;49.324;2023-09-07T10:29:01;1.45;;;1.15;;
67995;SDS011;54772;53.544;49.324;2023-09-07T10:31:51;1.70;;;1.42;;
67995;SDS011;54772;53.544;49.324;2023-09-07T10:34:37;2.12;;;1.27;;
67995;SDS011;54772;53.544;49.324;2023-09-07T10:37:29;2.17;;;1.30;;
67995;SDS011;54772;53.544;49.324;2023-09-07T10:43:09;0.60;;;0.52;;
67995;SDS011;54772;53.544;49.324;2023-09-07T10:45:56;1.25;;;1.02;;
67995;SDS011;54772;53.544;49.324;2023-09-07T10:48:44;1.20;;;1.10;;
67995;SDS011;54772;53.544;49.324;2023-09-07T10:51:30;3.92;;;1.80;;
67995;SDS011;54772;53.544;49.324;2023-09-07T10:54:17;2.40;;;1.55;;
67995;SDS011;54772;53.544;49.324;2023-09-07T10:57:08;1.83;;;1.37;;
67995;SDS011;54772;53.544;49.324;2023-09-07T10:59:55;3.12;;;1.48;;
67995;SDS011;54772;53.544;49.324;2023-09-07T11:05:28;1.25;;;1.10;;
67995;SDS011;54772;53.544;49.324;2023-09-07T11:11:02;3.53;;;1.37;;
67995;SDS011;54772;53.544;49.324;2023-09-07T11:13:48;4.50;;;1.65;;
67995;SDS011;54772;53.544;49.324;2023-09-07T11:16:36;1.80;;;1.10;;
67995;SDS011;54772;53.544;49.324;2023-09-07T11:19:22;2.28;;;1.15;;
67995;SDS011;54772;53.544;49.324;2023-09-07T11:24:56;2.42;;;1.23;;
67995;SDS011;54772;53.544;49.324;2023-09-07T11:30:28;2.35;;;1.30;;
67995;SDS011;54772;53.544;49.324;2023-09-07T11:36:03;2.87;;;1.20;;
67995;SDS011;54772;53.544;49.324;2023-09-07T11:38:52;1.62;;;1.30;;
67995;SDS011;54772;53.544;49.324;2023-09-07T11:41:42;2.37;;;1.25;;
67995;SDS011;54772;53.544;49.324;2023-09-07T11:44:29;1.67;;;1.10;;
67995;SDS011;54772;53.544;49.324;2023-09-07T11:47:15;1.00;;;0.88;;
67995;SDS011;54772;53.544;49.324;2023-09-07T11:50:02;2.58;;;1.35;;
67995;SDS011;54772;53.544;49.324;2023-09-07T11:52:50;4.35;;;1.62;;
67995;SDS011;54772;53.544;49.324;2023-09-07T11:55:37;3.10;;;1.45;;
67995;SDS011;54772;53.544;49.324;2023-09-07T11:58:25;1.00;;;1.00;;
67995;SDS011;54772;53.544;49.324;2023-09-07T12:04:01;1.35;;;1.10;;
67995;SDS011;54772;53.544;49.324;2023-09-07T12:06:49;2.20;;;1.20;;
67995;SDS011;54772;53.544;49.324;2023-09-07T12:12:21;1.73;;;0.80;;
67995;SDS011;54772;53.544;49.324;2023-09-07T12:15:09;1.58;;;1.10;;
67995;SDS011;54772;53.544;49.324;2023-09-07T12:17:58;3.70;;;1.20;;
67995;SDS011;54772;53.544;49.324;2023-09-07T12:20:45;2.03;;;1.27;;
67995;SDS011;54772;53.544;49.324;2023-09-07T12:23:32;1.17;;;1.08;;
67995;SDS011;54772;53.544;49.324;2023-09-07T12:29:06;1.30;;;1.17;;
67995;SDS011;54772;53.544;49.324;2023-09-07T12:31:53;1.95;;;0.90;;
67995;SDS011;54772;53.544;49.324;2023-09-07T12:37:26;0.77;;;0.77;;
67995;SDS011;54772;53.544;49.324;2023-09-07T12:40:13;1.30;;;1.02;;
67995;SDS011;54772;53.544;49.324;2023-09-07T12:42:59;1.70;;;1.20;;
67995;SDS011;54772;53.544;49.324;2023-09-07T12:45:46;1.37;;;0.88;;
67995;SDS011;54772;53.544;49.324;2023-09-07T12:48:33;2.45;;;1.02;;
67995;SDS011;54772;53.544;49.324;2023-09-07T12:51:20;1.37;;;1.12;;
67995;SDS011;54772;53.544;49.324;2023-09-07T12:54:06;1.12;;;0.68;;
67995;SDS011;54772;53.544;49.324;2023-09-07T12:56:53;1.73;;;0.90;;
67995;SDS011;54772;53.544;49.324;2023-09-07T12:59:39;1.20;;;1.10;;
67995;SDS011;54772;53.544;49.324;2023-09-07T13:02:25;3.15;;;0.95;;
67995;SDS011;54772;53.544;49.324;2023-09-07T13:05:12;2.62;;;1.30;;
67995;SDS011;54772;53.544;49.324;2023-09-07T13:10:47;1.95;;;0.98;;
67995;SDS011;54772;53.544;49.324;2023-09-07T13:13:33;2.28;;;1.00;;
67995;SDS011;54772;53.544;49.324;2023-09-07T13:16:20;1.87;;;0.95;;
67995;SDS011;54772;53.544;49.324;2023-09-07T13:21:53;1.65;;;1.10;;
67995;SDS011;54772;53.544;49.324;2023-09-07T13:24:39;1.27;;;0.98;;
67995;SDS011;54772;53.544;49.324;2023-09-07T13:30:12;2.17;;;0.88;;
67995;SDS011;54772;53.544;49.324;2023-09-07T13:32:59;3.53;;;1.40;;
67995;SDS011;54772;53.544;49.324;2023-09-07T13:35:45;1.90;;;1.37;;
67995;SDS011;54772;53.544;49.324;2023-09-07T13:41:18;1.45;;;1.10;;
67995;SDS011;54772;53.544;49.324;2023-09-07T13:44:05;1.60;;;1.08;;
67995;SDS011;54772;53.544;49.324;2023-09-07T13:46:52;2.60;;;1.60;;
67995;SDS011;54772;53.544;49.324;2023-09-07T13:49:40;1.77;;;1.20;;
67995;SDS011;54772;53.544;49.324;2023-09-07T13:52:26;2.20;;;1.30;;
67995;SDS011;54772;53.544;49.324;2023-09-07T13:55:13;1.85;;;1.20;;
67995;SDS011;54772;53.544;49.324;2023-09-07T14:00:46;3.20;;;1.40;;
67995;SDS011;54772;53.544;49.324;2023-09-07T14:03:33;2.20;;;1.30;;
67995;SDS011;54772;53.544;49.324;2023-09-07T14:06:19;1.55;;;1.42;;
67995;SDS011;54772;53.544;49.324;2023-09-07T14:09:08;2.08;;;1.17;;
67995;SDS011;54772;53.544;49.324;2023-09-07T14:14:42;1.27;;;0.80;;
67995;SDS011;54772;53.544;49.324;2023-09-07T14:17:28;1.98;;;1.25;;
67995;SDS011;54772;53.544;49.324;2023-09-07T14:20:15;3.33;;;1.35;;
67995;SDS011;54772;53.544;49.324;2023-09-07T14:23:01;1.80;;;1.15;;
67995;SDS011;54772;53.544;49.324;2023-09-07T14:25:48;2.45;;;1.30;;
67995;SDS011;54772;53.544;49.324;2023-09-07T14:31:23;1.55;;;0.95;;
67995;SDS011;54772;53.544;49.324;2023-09-07T14:34:06;2.15;;;1.50;;
67995;SDS011;54772;53.544;49.324;2023-09-07T14:36:53;4.18;;;1.60;;
67995;SDS011;54772;53.544;49.324;2023-09-07T14:39:41;3.85;;;1.80;;
67995;SDS011;54772;53.544;49.324;2023-09-07T14:42:32;1.83;;;1.55;;
67995;SDS011;54772;53.544;49.324;2023-09-07T14:48:05;3.05;;;1.75;;
67995;SDS011;54772;53.544;49.324;2023-09-07T14:50:52;2.25;;;1.83;;
67995;SDS011;54772;53.544;49.324;2023-09-07T14:56:25;4.30;;;2.20;;
67995;SDS011;54772;53.544;49.324;2023-09-07T14:59:13;4.30;;;1.90;;
67995;SDS011;54772;53.544;49.324;2023-09-07T15:04:46;2.78;;;1.87;;
67995;SDS011;54772;53.544;49.324;2023-09-07T15:07:32;4.87;;;1.80;;
67995;SDS011;54772;53.544;49.324;2023-09-07T15:10:19;2.85;;;1.80;;
67995;SDS011;54772;53.544;49.324;2023-09-07T15:15:53;2.08;;;1.60;;
67995;SDS011;54772;53.544;49.324;2023-09-07T15:18:39;3.50;;;2.25;;
67995;SDS011;54772;53.544;49.324;2023-09-07T15:21:25;7.03;;;3.97;;
67995;SDS011;54772;53.544;49.324;2023-09-07T15:24:12;6.28;;;4.10;;
67995;SDS011;54772;53.544;49.324;2023-09-07T15:27:06;2.45;;;1.73;;
67995;SDS011;54772;53.544;49.324;2023-09-07T15:29:54;1.50;;;1.40;;
67995;SDS011;54772;53.544;49.324;2023-09-07T15:32:40;2.92;;;1.30;;
67995;SDS011;54772;53.544;49.324;2023-09-07T15:38:13;1.42;;;1.30;;
67995;SDS011;54772;53.544;49.324;2023-09-07T15:41:00;2.60;;;1.30;;
67995;SDS011;54772;53.544;49.324;2023-09-07T15:43:50;1.30;;;1.20;;
67995;SDS011;54772;53.544;49.324;2023-09-07T15:46:37;2.45;;;1.37;;
67995;SDS011;54772;53.544;49.324;2023-09-07T15:49:25;1.70;;;1.25;;
67995;SDS011;54772;53.544;49.324;2023-09-07T15:52:12;1.77;;;1.12;;
67995;SDS011;54772;53.544;49.324;2023-09-07T15:55:02;3.50;;;1.27;;
67995;SDS011;54772;53.544;49.324;2023-09-07T15:57:49;1.77;;;1.05;;
67995;SDS011;54772;53.544;49.324;2023-09-07T16:00:36;1.98;;;1.02;;
67995;SDS011;54772;53.544;49.324;2023-09-07T16:03:23;2.05;;;1.50;;
67995;SDS011;54772;53.544;49.324;2023-09-07T16:06:09;1.62;;;1.23;;
67995;SDS011;54772;53.544;49.324;2023-09-07T16:08:56;3.20;;;1.40;;
67995;SDS011;54772;53.544;49.324;2023-09-07T16:14:29;4.50;;;1.55;;
67995;SDS011;54772;53.544;49.324;2023-09-07T16:17:15;1.73;;;1.30;;
67995;SDS011;54772;53.544;49.324;2023-09-07T16:22:48;1.25;;;1.10;;
67995;SDS011;54772;53.544;49.324;2023-09-07T16:25:35;4.07;;;1.83;;
67995;SDS011;54772;53.544;49.324;2023-09-07T16:28:22;1.62;;;1.40;;
67995;SDS011;54772;53.544;49.324;2023-09-07T16:31:08;1.75;;;1.20;;
67995;SDS011;54772;53.544;49.324;2023-09-07T16:36:42;1.55;;;1.15;;
67995;SDS011;54772;53.544;49.324;2023-09-07T16:39:29;1.48;;;1.20;;
67995;SDS011;54772;53.544;49.324;2023-09-07T16:42:16;1.33;;;1.00;;
67995;SDS011;54772;53.544;49.324;2023-09-07T16:45:04;1.25;;;1.02;;
67995;SDS011;54772;53.544;49.324;2023-09-07T16:47:52;0.90;;;0.90;;
67995;SDS011;54772;53.544;49.324;2023-09-07T16:50:43;1.85;;;0.75;;
67995;SDS011;54772;53.544;49.324;2023-09-07T16:53:31;2.08;;;1.02;;
67995;SDS011;54772;53.544;49.324;2023-09-07T16:56:17;2.03;;;1.02;;
67995;SDS011;54772;53.544;49.324;2023-09-07T16:59:06;0.70;;;0.70;;
67995;SDS011;54772;53.544;49.324;2023-09-07T17:01:52;1.33;;;0.93;;
67995;SDS011;54772;53.544;49.324;2023-09-07T17:07:25;2.03;;;1.10;;
67995;SDS011;54772;53.544;49.324;2023-09-07T17:10:12;1.52;;;1.20;;
67995;SDS011;54772;53.544;49.324;2023-09-07T17:12:58;1.70;;;1.10;;
67995;SDS011;54772;53.544;49.324;2023-09-07T17:18:35;1.87;;;0.80;;
67995;SDS011;54772;53.544;49.324;2023-09-07T17:21:22;4.68;;;0.88;;
67995;SDS011;54772;53.544;49.324;2023-09-07T17:24:10;1.48;;;0.73;;
67995;SDS011;54772;53.544;49.324;2023-09-07T17:26:57;0.93;;;0.60;;
67995;SDS011;54772;53.544;49.324;2023-09-07T17:29:43;1.25;;;0.68;;
67995;SDS011;54772;53.544;49.324;2023-09-07T17:32:30;2.15;;;1.10;;
67995;SDS011;54772;53.544;49.324;2023-09-07T17:35:16;5.90;;;2.70;;
67995;SDS011;54772;53.544;49.324;2023-09-07T17:38:03;1.48;;;0.85;;
67995;SDS011;54772;53.544;49.324;2023-09-07T17:40:50;0.75;;;0.52;;
67995;SDS011;54772;53.544;49.324;2023-09-07T17:43:37;1.50;;;0.68;;
67995;SDS011;54772;53.544;49.324;2023-09-07T17:46:24;1.80;;;1.02;;
67995;SDS011;54772;53.544;49.324;2023-09-07T17:49:11;1.70;;;0.80;;
67995;SDS011;54772;53.544;49.324;2023-09-07T17:54:44;1.50;;;0.80;;
67995;SDS011;54772;53.544;49.324;2023-09-07T18:00:18;0.73;;;0.45;;
67995;SDS011;54772;53.544;49.324;2023-09-07T18:03:05;2.67;;;1.45;;
67995;SDS011;54772;53.544;49.324;2023-09-07T18:05:51;1.85;;;1.35;;
67995;SDS011;54772;53.544;49.324;2023-09-07T18:08:38;1.20;;;0.77;;
67995;SDS011;54772;53.544;49.324;2023-09-07T18:11:24;1.50;;;1.05;;
67995;SDS011;54772;53.544;49.324;2023-09-07T18:16:58;1.10;;;0.97;;
67995;SDS011;54772;53.544;49.324;2023-09-07T18:19:45;1.30;;;0.75;;
67995;SDS011;54772;53.544;49.324;2023-09-07T18:22:31;0.80;;;0.70;;
67995;SDS011;54772;53.544;49.324;2023-09-07T18:25:18;0.88;;;0.80;;
67995;SDS011;54772;53.544;49.324;2023-09-07T18:28:04;1.17;;;0.80;;
67995;SDS011;54772;53.544;49.324;2023-09-07T18:30:51;1.20;;;0.82;;
67995;SDS011;54772;53.544;49.324;2023-09-07T18:33:38;0.93;;;0.73;;
67995;SDS011;54772;53.544;49.324;2023-09-07T18:36:24;0.98;;;0.90;;
67995;SDS011;54772;53.544;49.324;2023-09-07T18:39:11;1.20;;;0.80;;
67995;SDS011;54772;53.544;49.324;2023-09-07T18:41:57;1.20;;;0.70;;
67995;SDS011;54772;53.544;49.324;2023-09-07T18:47:48;2.15;;;0.68;;
67995;SDS011;54772;53.544;49.324;2023-09-07T18:53:21;1.62;;;0.62;;
67995;SDS011;54772;53.544;49.324;2023-09-07T18:56:08;1.15;;;0.75;;
67995;SDS011;54772;53.544;49.324;2023-09-07T18:58:54;0.82;;;0.68;;
67995;SDS011;54772;53.544;49.324;2023-09-07T19:04:27;1.08;;;0.90;;
67995;SDS011;54772;53.544;49.324;2023-09-07T19:07:16;0.50;;;0.50;;
67995;SDS011;54772;53.544;49.324;2023-09-07T19:10:08;1.10;;;0.70;;
67995;SDS011;54772;53.544;49.324;2023-09-07T19:15:41;1.17;;;0.80;;